Marvel, Colorado
Current Conditions -  °F | °C
As of 6:37 PM on Monday 22 Dec 2014 (Local Time) from KDRO Reporting Station
Light Snow Light Snow  
Wind Chill: 23°   Ceiling: 1600
Heat Index: 32°   Visibility: 1.5mi
Dew Point: 30°   Wind: 13mph
Humidity: 92%   Direction: 280°W
Pressure: 29.77"   Gusts: NA
Location:  37.11°N, 108.13°W
Report Text: KDRO 230137Z AUTO 28011KT 1 1/2SM -SN BR OVC016 00/M01 A2977 RMK AO2 P0001 T00001011
Loading
Personal Weather Stations






























Interactive Weather Map New forecast layout! Learn more

10-Day Weather Forecast

Advertisements
Track Severe Weather on mobile